Time;durP1;ratioP1;P1;durP2;ratioP2;P2;SDS_P1;SDS_P2;PMS_P1;PMS_P2;Temp;Humidity;BMP_temperature;BMP_pressure;BME280_temperature;BME280_humidity;BME280_pressure;Samples;Min_cycle;Max_cycle;Signal;HPM_P1;HPM_P2
2021/10/20 00:01:05;;;;;;;26.93;15.80;;;;;;;-0.06;100.00;101999.19;1660704;84;20978;-94
2021/10/20 00:03:32;;;;;;;26.42;14.87;;;;;;;-0.08;100.00;102000.94;1680416;84;21033;-94
2021/10/20 00:05:59;;;;;;;28.38;15.30;;;;;;;-0.10;100.00;101999.64;1680694;84;21134;-94
2021/10/20 00:08:26;;;;;;;25.12;13.53;;;;;;;-0.11;100.00;101998.38;1680246;84;20977;-94
2021/10/20 00:10:53;;;;;;;26.23;14.25;;;;;;;-0.15;100.00;102003.97;1680158;84;21013;-94
2021/10/20 00:13:20;;;;;;;20.35;13.13;;;;;;;-0.17;100.00;102001.84;1680466;84;20974;-94
2021/10/20 00:15:48;;;;;;;19.73;13.10;;;;;;;-0.19;100.00;102003.14;1680604;84;20997;-95
2021/10/20 00:18:15;;;;;;;15.98;10.80;;;;;;;-0.19;100.00;102006.11;1660247;84;21102;-92
2021/10/20 00:20:43;;;;;;;22.52;13.83;;;;;;;-0.18;100.00;102012.94;1680665;84;21013;-95
2021/10/20 00:23:12;;;;;;;20.35;12.98;;;;;;;-0.16;100.00;102015.06;1680227;84;21570;-94
2021/10/20 00:25:42;;;;;;;22.70;12.58;;;;;;;-0.18;100.00;102015.50;1679502;84;21485;-93
2021/10/20 00:28:09;;;;;;;18.35;11.40;;;;;;;-0.20;100.00;102016.80;1680423;84;21025;-93
2021/10/20 00:30:37;;;;;;;20.02;10.60;;;;;;;-0.21;100.00;102016.37;1680724;84;21140;-93
2021/10/20 00:33:04;;;;;;;18.30;10.70;;;;;;;-0.18;100.00;102008.69;1672993;84;21988;-92
2021/10/20 00:35:32;;;;;;;16.48;11.30;;;;;;;-0.10;100.00;102015.00;1672829;84;21045;-93
2021/10/20 00:37:59;;;;;;;16.60;10.48;;;;;;;-0.04;100.00;102011.11;1653328;84;21559;-91
2021/10/20 00:40:26;;;;;;;19.32;10.40;;;;;;;0.02;100.00;102020.45;1672547;84;21006;-92
2021/10/20 00:42:54;;;;;;;18.17;11.33;;;;;;;0.07;100.00;102022.57;1672877;84;21093;-94
2021/10/20 00:45:21;;;;;;;15.63;10.23;;;;;;;0.13;100.00;102020.36;1672619;84;20974;-92
2021/10/20 00:47:49;;;;;;;18.70;11.18;;;;;;;0.16;100.00;102019.06;1672785;84;20990;-92
2021/10/20 00:50:16;;;;;;;17.00;11.25;;;;;;;0.21;100.00;102023.70;1672848;84;21017;-92
2021/10/20 00:52:43;;;;;;;18.45;11.45;;;;;;;0.25;100.00;102018.98;1672972;84;21515;-91
2021/10/20 00:55:13;;;;;;;18.85;11.83;;;;;;;0.25;100.00;102023.24;1673638;84;21126;-93
2021/10/20 00:57:44;;;;;;;19.07;11.50;;;;;;;0.21;100.00;102026.71;1673036;84;20970;-93
2021/10/20 01:00:15;;;;;;;20.30;12.55;;;;;;;0.15;100.00;102026.33;1673485;84;21073;-93
2021/10/20 01:02:43;;;;;;;20.17;11.40;;;;;;;0.10;100.00;102026.37;1672751;84;21001;-92
2021/10/20 01:05:11;;;;;;;17.27;12.07;;;;;;;0.07;100.00;102025.55;1673049;84;21475;-92
2021/10/20 01:07:38;;;;;;;17.55;11.93;;;;;;;0.04;100.00;102029.43;1653367;85;21108;-90
2021/10/20 01:10:10;;;;;;;16.00;11.48;;;;;;;0.01;100.00;102032.84;1672962;84;20967;-91
2021/10/20 01:12:40;;;;;;;18.48;10.85;;;;;;;0.01;100.00;102033.28;1673134;84;20978;-90
2021/10/20 01:15:26;;;;;;;18.32;11.83;;;;;;;0.02;100.00;102038.39;1673243;84;20966;-93
2021/10/20 01:17:53;;;;;;;19.00;11.90;;;;;;;0.04;100.00;102039.23;1673261;84;21487;-91
2021/10/20 01:20:32;;;;;;;18.35;11.55;;;;;;;0.06;100.00;102041.77;1673940;83;21144;-91
2021/10/20 01:22:58;;;;;;;16.50;11.48;;;;;;;0.10;100.00;102049.42;1673736;84;21439;-92
2021/10/20 01:25:27;;;;;;;19.20;11.68;;;;;;;0.11;100.00;102057.97;1672940;84;21500;-91
2021/10/20 01:27:54;;;;;;;18.75;11.90;;;;;;;0.11;100.00;102056.69;1673662;84;21014;-92
2021/10/20 01:30:21;;;;;;;17.37;11.80;;;;;;;0.11;100.00;102060.53;1653468;84;20982;-92
2021/10/20 01:32:48;;;;;;;16.50;11.45;;;;;;;0.12;100.00;102060.95;1678117;83;21140;-93
2021/10/20 01:35:15;;;;;;;18.40;11.12;;;;;;;0.11;100.00;102065.22;1660655;85;20990;-93
2021/10/20 01:37:42;;;;;;;16.75;11.25;;;;;;;0.12;100.00;102068.64;1680515;84;21018;-92
2021/10/20 01:40:11;;;;;;;13.13;10.32;;;;;;;0.14;100.00;102077.14;1680448;84;21538;-93
2021/10/20 01:42:40;;;;;;;16.80;11.30;;;;;;;0.15;100.00;102075.87;1660969;85;20998;-92
2021/10/20 01:45:13;;;;;;;18.57;11.18;;;;;;;0.16;100.00;102077.98;1680359;84;21865;-93
2021/10/20 01:47:40;;;;;;;19.07;10.68;;;;;;;0.17;100.00;102073.70;1680395;84;21013;-92
2021/10/20 01:50:11;;;;;;;16.73;10.48;;;;;;;0.19;100.00;102075.83;1680625;84;21041;-91
2021/10/20 01:52:39;;;;;;;19.40;10.63;;;;;;;0.21;100.00;102078.79;1679682;84;21488;-93
2021/10/20 01:55:08;;;;;;;16.02;11.28;;;;;;;0.22;100.00;102086.06;1680832;84;21045;-92
2021/10/20 01:57:35;;;;;;;18.07;11.48;;;;;;;0.22;100.00;102087.34;1680524;84;21139;-93
2021/10/20 02:00:05;;;;;;;20.10;11.03;;;;;;;0.24;100.00;102094.59;1660883;84;21005;-92
2021/10/20 02:02:34;;;;;;;18.67;11.63;;;;;;;0.25;100.00;102088.58;1657302;85;21001;-93
2021/10/20 02:05:01;;;;;;;17.20;10.98;;;;;;;0.25;100.00;102086.02;1680209;84;21016;-91
2021/10/20 02:07:28;;;;;;;16.10;10.08;;;;;;;0.26;100.00;102079.62;1680489;84;21586;-91
2021/10/20 02:09:55;;;;;;;15.95;9.93;;;;;;;0.26;100.00;102081.31;1680526;84;21137;-93
2021/10/20 02:12:22;;;;;;;14.07;9.93;;;;;;;0.26;100.00;102080.90;1680215;84;21013;-93
2021/10/20 02:14:49;;;;;;;17.70;10.80;;;;;;;0.27;100.00;102077.89;1660365;85;21953;-92
2021/10/20 02:17:16;;;;;;;14.90;9.83;;;;;;;0.26;100.00;102081.31;1680506;84;21049;-93
2021/10/20 02:19:43;;;;;;;16.65;9.65;;;;;;;0.25;100.00;102085.60;1680455;84;21030;-90
2021/10/20 02:22:10;;;;;;;17.10;9.63;;;;;;;0.27;100.00;102086.86;1679907;84;21140;-92
2021/10/20 02:24:43;;;;;;;15.63;10.20;;;;;;;0.25;100.00;102079.61;1679320;84;21523;-92
2021/10/20 02:27:10;;;;;;;15.93;9.85;;;;;;;0.26;100.00;102091.16;1680259;84;21531;-90
2021/10/20 02:29:37;;;;;;;21.42;10.35;;;;;;;0.26;100.00;102087.30;1680202;84;21033;-90
2021/10/20 02:32:07;;;;;;;19.07;9.55;;;;;;;0.27;100.00;102090.70;1655921;84;21030;-89
2021/10/20 02:34:35;;;;;;;13.43;9.10;;;;;;;0.27;100.00;102096.70;1638457;86;21152;-90
2021/10/20 02:37:02;;;;;;;13.35;9.30;;;;;;;0.26;100.00;102101.41;1638114;86;21033;-90
2021/10/20 02:39:29;;;;;;;15.90;9.70;;;;;;;0.23;100.00;102101.41;1638482;86;21010;-91
2021/10/20 02:41:56;;;;;;;13.25;9.70;;;;;;;0.21;100.00;102103.12;1638639;86;21005;-90
2021/10/20 02:44:23;;;;;;;17.62;9.55;;;;;;;0.20;100.00;102110.39;1638350;86;21056;-90
2021/10/20 02:46:50;;;;;;;16.55;9.63;;;;;;;0.19;100.00;102108.72;1638538;86;21152;-90
2021/10/20 02:49:17;;;;;;;14.03;9.78;;;;;;;0.15;100.00;102107.03;1638408;86;21022;-92
2021/10/20 02:51:44;;;;;;;16.97;9.15;;;;;;;0.12;100.00;102107.07;1638903;86;21010;-92
2021/10/20 02:54:11;;;;;;;14.53;10.25;;;;;;;0.09;100.00;102105.36;1638317;86;21528;-80
2021/10/20 02:56:39;;;;;;;27.52;12.43;;;;;;;0.13;100.00;102103.20;1636909;85;21052;-91
2021/10/20 02:59:06;;;;;;;19.80;11.68;;;;;;;0.30;100.00;102093.25;1665047;84;21141;-89
2021/10/20 03:01:33;;;;;;;26.75;13.98;;;;;;;0.51;100.00;102089.66;1665313;85;21607;-89
2021/10/20 03:04:00;;;;;;;21.93;13.10;;;;;;;0.51;100.00;102091.35;1669315;85;20998;-90
2021/10/20 03:06:27;;;;;;;20.85;13.10;;;;;;;0.28;100.00;102093.69;1665575;84;21022;-90
2021/10/20 03:08:54;;;;;;;25.30;13.90;;;;;;;0.07;100.00;102094.70;1665454;84;21511;-90
2021/10/20 03:11:21;;;;;;;27.32;14.38;;;;;;;-0.10;100.00;102092.28;1646234;86;21464;-89
2021/10/20 03:13:48;;;;;;;28.80;15.03;;;;;;;-0.29;100.00;102094.11;1665506;84;21002;-90
2021/10/20 03:16:16;;;;;;;32.98;15.35;;;;;;;-0.42;100.00;102094.60;1665558;84;21009;-88
2021/10/20 03:18:43;;;;;;;26.15;13.68;;;;;;;-0.51;100.00;102096.35;1645531;86;21013;-82
2021/10/20 03:21:10;;;;;;;25.25;14.90;;;;;;;-0.45;100.00;102100.59;1638689;86;21057;-91
2021/10/20 03:23:39;;;;;;;30.82;16.37;;;;;;;-0.36;100.00;102094.13;1664077;84;21181;-90
2021/10/20 03:26:06;;;;;;;27.77;15.90;;;;;;;-0.35;100.00;102100.11;1666314;84;21520;-90
2021/10/20 03:28:33;;;;;;;35.10;16.90;;;;;;;-0.46;100.00;102102.73;1646526;85;21085;-90
2021/10/20 03:31:00;;;;;;;31.55;16.55;;;;;;;-0.53;100.00;102098.50;1665740;84;20966;-89
2021/10/20 03:33:28;;;;;;;29.30;15.08;;;;;;;-0.56;100.00;102098.50;1671462;84;21471;-85
2021/10/20 03:35:59;;;;;;;33.67;16.23;;;;;;;-0.64;100.00;102104.92;1655933;85;20997;-83
2021/10/20 03:38:26;;;;;;;34.18;17.05;;;;;;;-0.65;100.00;102105.81;1675445;84;21034;-88
2021/10/20 03:40:53;;;;;;;29.32;15.13;;;;;;;-0.66;100.00;102112.62;1674834;84;20986;-86
2021/10/20 03:43:20;;;;;;;35.03;18.05;;;;;;;-0.61;100.00;102118.16;1675553;84;21336;-86
2021/10/20 03:45:50;;;;;;;34.88;17.70;;;;;;;-0.58;100.00;102120.69;1674808;84;21002;-84
2021/10/20 03:48:18;;;;;;;37.13;16.52;;;;;;;-0.66;100.00;102129.69;1674035;85;21898;-86
2021/10/20 03:50:45;;;;;;;38.20;17.62;;;;;;;-0.74;100.00;102128.87;1675356;84;21006;-86
2021/10/20 03:53:12;;;;;;;39.20;18.48;;;;;;;-0.84;100.00;102135.28;1675704;84;21002;-86
2021/10/20 03:55:42;;;;;;;36.77;17.80;;;;;;;-0.94;100.00;102136.59;1675221;84;21085;-85
2021/10/20 03:58:09;;;;;;;41.68;18.87;;;;;;;-1.06;100.00;102145.98;1679050;84;21040;-86
2021/10/20 04:00:36;;;;;;;29.52;16.48;;;;;;;-1.22;100.00;102151.57;1675238;84;21161;-85
2021/10/20 04:03:03;;;;;;;42.27;18.42;;;;;;;-1.33;100.00;102158.38;1675199;84;21476;-86
2021/10/20 04:05:30;;;;;;;34.38;16.65;;;;;;;-1.39;100.00;102159.23;1674992;84;21064;-85
2021/10/20 04:07:58;;;;;;;32.00;16.20;;;;;;;-1.43;100.00;102163.94;1675515;84;21000;-86
2021/10/20 04:10:26;;;;;;;31.95;15.85;;;;;;;-1.43;100.00;102169.05;1675634;84;21101;-85
2021/10/20 04:12:55;;;;;;;32.50;15.25;;;;;;;-1.42;100.00;102170.75;1675139;84;21995;-85
2021/10/20 04:15:26;;;;;;;30.08;15.83;;;;;;;-1.42;100.00;102166.92;1674694;84;21141;-85
2021/10/20 04:17:53;;;;;;;24.02;13.58;;;;;;;-1.44;100.00;102176.28;1674965;84;21045;-85
2021/10/20 04:20:25;;;;;;;25.82;14.87;;;;;;;-1.45;100.00;102172.02;1675191;84;21026;-86
2021/10/20 04:22:52;;;;;;;33.98;16.30;;;;;;;-1.46;100.00;102172.87;1675377;84;21006;-86
2021/10/20 04:25:21;;;;;;;25.57;14.80;;;;;;;-1.47;100.00;102183.94;1674974;84;21161;-85
2021/10/20 04:27:51;;;;;;;31.12;16.93;;;;;;;-1.48;100.00;102186.06;1674906;84;21479;-85
2021/10/20 04:30:20;;;;;;;26.37;16.12;;;;;;;-1.51;100.00;102183.52;1675371;84;20990;-86
2021/10/20 04:32:48;;;;;;;29.37;16.60;;;;;;;-1.56;100.00;102188.63;1658071;84;21059;-85
2021/10/20 04:35:17;;;;;;;25.45;14.85;;;;;;;-1.61;100.00;102195.01;1686124;83;21029;-86
2021/10/20 04:37:46;;;;;;;24.37;14.03;;;;;;;-1.64;100.00;102188.61;1662324;84;21032;-86
2021/10/20 04:40:13;;;;;;;26.60;14.98;;;;;;;-1.62;100.00;102193.73;1685607;83;21008;-86
2021/10/20 04:42:40;;;;;;;26.97;16.12;;;;;;;-1.57;100.00;102200.13;1685647;83;21506;-86
2021/10/20 04:45:08;;;;;;;23.25;14.00;;;;;;;-1.56;100.00;102209.06;1685011;83;21012;-86
2021/10/20 04:47:36;;;;;;;24.47;13.90;;;;;;;-1.56;100.00;102204.40;1685548;83;21503;-87
2021/10/20 04:50:07;;;;;;;24.32;13.80;;;;;;;-1.59;100.00;102212.48;1685729;83;21852;-86
2021/10/20 04:52:35;;;;;;;26.65;14.70;;;;;;;-1.56;100.00;102215.45;1700547;82;21027;-86
2021/10/20 04:55:05;;;;;;;23.32;13.93;;;;;;;-1.51;100.00;102221.84;1691160;82;20996;-86
2021/10/20 04:57:33;;;;;;;23.22;14.05;;;;;;;-1.44;100.00;102224.84;1719685;82;20999;-86
2021/10/20 05:00:00;;;;;;;39.80;14.83;;;;;;;-1.37;100.00;102228.26;1715179;82;21051;-86
2021/10/20 05:02:35;;;;;;;27.40;13.45;;;;;;;-1.30;100.00;102228.69;1703107;82;21018;-86
2021/10/20 05:04:58;;;;;;;24.67;14.00;;;;;;;-1.21;100.00;102226.55;1701750;83;20992;-86
2021/10/20 05:07:25;;;;;;;25.97;14.50;;;;;;;-1.13;100.00;102228.67;1692761;82;21463;-86
2021/10/20 05:09:53;;;;;;;26.35;14.87;;;;;;;-1.04;100.00;102231.67;1685785;83;20973;-85
2021/10/20 05:12:20;;;;;;;26.85;17.92;;;;;;;-0.98;100.00;102236.77;1664224;84;21023;-86
2021/10/20 05:14:49;;;;;;;27.22;18.20;;;;;;;-0.92;100.00;102235.92;1685988;83;20996;-87
2021/10/20 05:17:16;;;;;;;25.97;14.58;;;;;;;-0.84;100.00;102237.61;1664174;84;21051;-85
2021/10/20 05:19:44;;;;;;;44.85;16.05;;;;;;;-0.75;100.00;102240.56;1685498;83;21010;-86
2021/10/20 05:22:12;;;;;;;26.10;15.72;;;;;;;-0.65;100.00;102251.21;1685607;83;21010;-87
2021/10/20 05:24:38;;;;;;;27.98;16.55;;;;;;;-0.56;100.00;102241.81;1665451;83;21158;-88
2021/10/20 05:27:05;;;;;;;26.27;15.25;;;;;;;-0.45;100.00;102234.09;1686327;83;21105;-86
2021/10/20 05:29:33;;;;;;;28.55;15.43;;;;;;;-0.36;100.00;102229.80;1685631;83;21487;-87
2021/10/20 05:32:01;;;;;;;25.27;15.15;;;;;;;-0.23;100.00;102233.61;1685598;83;21036;-86
2021/10/20 05:34:28;;;;;;;27.65;14.65;;;;;;;-0.10;100.00;102238.25;1677404;83;21028;-88
2021/10/20 05:36:55;;;;;;;26.50;14.90;;;;;;;0.03;100.00;102246.73;1679923;84;21022;-87
2021/10/20 05:39:23;;;;;;;24.43;16.37;;;;;;;0.15;100.00;102250.50;1679898;84;21128;-87
2021/10/20 05:41:50;;;;;;;24.55;15.00;;;;;;;0.26;100.00;102256.42;1679616;84;21002;-87
2021/10/20 05:44:18;;;;;;;20.92;13.78;;;;;;;0.38;100.00;102257.20;1677202;84;20970;-87
2021/10/20 05:46:47;;;;;;;22.95;13.72;;;;;;;0.53;100.00;102268.62;1672314;84;21028;-86
2021/10/20 05:49:14;;;;;;;20.97;13.20;;;;;;;0.66;100.00;102267.28;1679848;84;21017;-86
2021/10/20 05:51:41;;;;;;;21.20;13.90;;;;;;;0.79;100.00;102259.91;1667379;84;21164;-86
2021/10/20 05:54:08;;;;;;;21.60;12.90;;;;;;;0.93;100.00;102260.64;1647362;84;20990;-87
2021/10/20 05:56:36;;;;;;;22.02;13.08;;;;;;;1.06;100.00;102259.27;1681050;83;21574;-87
2021/10/20 05:59:04;;;;;;;21.85;12.50;;;;;;;1.20;100.00;102265.12;1658740;85;21018;-87
2021/10/20 06:01:31;;;;;;;20.10;12.47;;;;;;;1.36;100.00;102269.66;1675411;84;21002;-88
2021/10/20 06:03:59;;;;;;;21.42;14.18;;;;;;;1.49;100.00;102271.67;1675324;84;21094;-88
2021/10/20 06:06:26;;;;;;;21.70;14.33;;;;;;;1.62;100.00;102283.95;1675392;84;21030;-88
2021/10/20 06:08:54;;;;;;;19.52;12.85;;;;;;;1.72;100.00;102277.02;1675243;84;20997;-87
2021/10/20 06:11:24;;;;;;;15.60;10.45;;;;;;;1.84;100.00;102274.28;1680196;84;21000;-88
2021/10/20 06:13:52;;;;;;;13.50;10.17;;;;;;;1.95;100.00;102276.72;1674843;83;21007;-88
2021/10/20 06:16:21;;;;;;;15.55;10.10;;;;;;;2.05;100.00;102268.04;1667796;83;21880;-88
2021/10/20 06:18:51;;;;;;;15.30;9.95;;;;;;;2.28;100.00;102270.73;1671693;84;21036;-88
2021/10/20 06:21:19;;;;;;;13.15;9.40;;;;;;;2.28;100.00;102270.73;1666418;83;21053;-88
2021/10/20 06:24:01;;;;;;;13.75;9.65;;;;;;;2.40;100.00;102263.73;1677877;83;21039;-88
2021/10/20 06:26:32;;;;;;;13.13;9.40;;;;;;;2.51;100.00;102271.70;1666950;83;20990;-89
2021/10/20 06:29:02;;;;;;;15.45;9.40;;;;;;;2.65;100.00;102275.78;1689681;83;22363;-89
2021/10/20 06:31:40;;;;;;;15.23;10.47;;;;;;;2.75;100.00;102279.91;1677901;83;20995;-87
2021/10/20 06:34:10;;;;;;;12.18;8.90;;;;;;;2.86;100.00;102278.88;1680334;83;21746;-88
2021/10/20 06:36:41;;;;;;;;;;;;;;;2.98;100.00;102289.82;1660045;85;20928;-88
2021/10/20 06:39:10;;;;;;;15.35;9.13;;;;;;;3.11;100.00;102292.20;1674570;85;20215;-88
2021/10/20 06:41:41;;;;;;;14.58;8.93;;;;;;;3.21;100.00;102289.86;1651659;84;22325;-88
2021/10/20 06:44:12;;;;;;;12.20;8.55;;;;;;;3.28;100.00;102297.05;1674343;83;25564;-88
2021/10/20 06:46:48;;;;;;;15.40;8.28;;;;;;;3.36;100.00;102296.48;1650892;84;21926;-87
2021/10/20 06:49:15;;;;;;;11.75;7.83;;;;;;;3.45;100.00;102294.16;1625496;87;21000;-88
2021/10/20 06:51:43;;;;;;;11.05;8.53;;;;;;;3.57;100.00;102291.80;1637802;86;21541;-87
2021/10/20 06:54:18;;;;;;;12.07;8.50;;;;;;;3.69;100.00;102287.72;1669620;84;21117;-87
2021/10/20 06:56:47;;;;;;;10.88;8.23;;;;;;;3.79;100.00;102287.09;1661425;83;21069;-87
2021/10/20 06:59:18;;;;;;;11.05;8.18;;;;;;;3.87;100.00;102289.53;1654890;85;21004;-87
2021/10/20 07:01:45;;;;;;;10.13;7.65;;;;;;;3.95;100.00;102284.61;1663491;84;20993;-87
2021/10/20 07:04:13;;;;;;;10.00;7.70;;;;;;;4.04;100.00;102282.30;1656302;85;21551;-87
2021/10/20 07:06:50;;;;;;;11.22;8.38;;;;;;;4.15;100.00;102282.07;1666964;83;21096;-86
2021/10/20 07:09:17;;;;;;;10.75;7.50;;;;;;;4.24;100.00;102278.44;1699372;84;20991;-87
2021/10/20 07:11:48;;;;;;;9.80;6.30;;;;;;;4.35;100.00;102276.91;1681930;84;21496;-89
2021/10/20 07:14:20;;;;;;;10.05;7.20;;;;;;;4.47;100.00;102275.78;1702401;83;20943;-87
2021/10/20 07:17:09;;;;;;;10.28;8.13;;;;;;;4.59;100.00;102279.38;1678981;84;21660;-86
2021/10/20 07:19:32;;;;;;;9.60;6.87;;;;;;;4.70;100.00;102281.25;1699866;84;21444;-87
2021/10/20 07:22:10;;;;;;;13.20;7.85;;;;;;;4.81;100.00;102282.73;1700316;83;20958;-88
2021/10/20 07:24:47;;;;;;;8.15;6.58;;;;;;;4.92;100.00;102281.17;1698682;84;21388;-88
2021/10/20 07:27:36;;;;;;;;;;;;;;;;;;;;;
2021/10/20 07:30:02;;;;;;;7.00;5.55;;;;;;;5.12;100.00;102280.25;1626752;85;21027;-88
2021/10/20 07:32:34;;;;;;;7.40;5.87;;;;;;;5.24;100.00;102282.96;1643635;86;20976;-90
2021/10/20 07:35:09;;;;;;;10.40;6.42;;;;;;;5.35;100.00;102278.34;1656348;84;21046;-88
2021/10/20 07:37:45;;;;;;;14.03;5.95;;;;;;;5.57;100.00;102273.87;1648815;85;21080;-90
2021/10/20 07:40:18;;;;;;;129.00;13.13;;;;;;;5.87;100.00;102270.05;1665549;84;21034;-90
2021/10/20 07:42:54;;;;;;;69.70;9.23;;;;;;;6.13;100.00;102273.62;1617330;86;21189;-90
2021/10/20 07:45:25;;;;;;;35.63;7.22;;;;;;;6.32;100.00;102258.41;1605537;86;21113;-90
2021/10/20 07:48:00;;;;;;;17.57;6.47;;;;;;;6.44;100.00;102260.61;1652466;85;21014;-92
2021/10/20 07:50:30;;;;;;;37.93;7.42;;;;;;;6.54;100.00;102262.45;1666130;84;21465;-91
2021/10/20 07:53:00;;;;;;;13.15;6.22;;;;;;;6.61;100.00;102266.53;1624137;86;40072;-89
2021/10/20 07:55:28;;;;;;;20.17;6.28;;;;;;;6.70;100.00;102265.84;1666200;84;21053;-92
2021/10/20 07:57:56;;;;;;;40.98;8.00;;;;;;;6.82;100.00;102267.17;1646808;86;21101;-91
2021/10/20 08:00:29;;;;;;;51.63;7.90;;;;;;;6.97;100.00;102260.19;1661794;84;20984;-89
2021/10/20 08:03:00;;;;;;;22.52;5.87;;;;;;;7.14;100.00;102260.94;1679375;85;21477;-90
2021/10/20 08:05:27;;;;;;;13.60;5.10;;;;;;;7.32;100.00;102263.33;1667283;85;21071;-91
2021/10/20 08:07:55;;;;;;;53.85;7.85;;;;;;;7.46;100.00;102263.28;1679539;85;21545;-91
2021/10/20 08:10:28;;;;;;;16.70;4.72;;;;;;;7.61;100.00;102250.23;1675558;84;20990;-91
2021/10/20 08:12:58;;;;;;;32.05;6.00;;;;;;;7.72;100.00;102256.71;1671933;85;21533;-90
2021/10/20 08:15:31;;;;;;;10.78;3.55;;;;;;;7.79;100.00;102256.48;1667064;85;21031;-88
2021/10/20 08:18:03;;;;;;;5.60;2.98;;;;;;;7.82;100.00;102248.13;1679412;85;20983;-91
2021/10/20 08:20:33;;;;;;;6.62;3.67;;;;;;;7.81;100.00;102249.49;1667159;85;21482;-91
2021/10/20 08:23:04;;;;;;;6.60;3.12;;;;;;;7.86;100.00;102256.64;1679403;84;21782;-91
2021/10/20 08:25:34;;;;;;;5.17;2.70;;;;;;;7.96;100.00;102248.08;1679578;84;20979;-91
2021/10/20 08:28:01;;;;;;;15.40;3.80;;;;;;;8.03;100.00;102236.56;1647547;85;21458;-90
2021/10/20 08:30:29;;;;;;;13.08;3.95;;;;;;;8.11;100.00;102227.17;1652136;85;21036;-88
2021/10/20 08:32:57;;;;;;;4.58;3.42;;;;;;;8.18;100.00;102234.67;1642388;86;21006;-90
2021/10/20 08:35:24;;;;;;;14.80;3.95;;;;;;;8.25;100.00;102231.83;1676913;84;21132;-90
2021/10/20 08:37:56;;;;;;;12.50;4.20;;;;;;;8.31;100.00;102229.84;1675593;84;21080;-90
2021/10/20 08:40:28;;;;;;;7.42;3.75;;;;;;;8.37;99.98;102230.06;1655789;84;20996;-89
2021/10/20 08:42:56;;;;;;;8.58;4.55;;;;;;;8.36;83.72;102229.20;1675394;84;21084;-90
2021/10/20 08:45:24;;;;;;;7.37;4.30;;;;;;;8.32;85.90;102225.05;1675829;84;21055;-92
2021/10/20 08:47:52;;;;;;;5.87;4.15;;;;;;;8.35;100.00;102227.97;1655078;85;22546;-91
2021/10/20 08:50:25;;;;;;;9.40;4.12;;;;;;;8.43;93.96;102225.91;1657617;85;21031;-90
2021/10/20 08:52:53;;;;;;;4.87;3.62;;;;;;;8.51;97.36;102223.88;1658168;85;21580;-90
2021/10/20 08:55:23;;;;;;;8.23;3.95;;;;;;;8.60;93.86;102220.05;1673580;84;21004;-90
2021/10/20 08:57:52;;;;;;;21.17;5.05;;;;;;;8.68;98.07;102216.69;1659891;84;20997;-91
2021/10/20 09:00:22;;;;;;;8.98;4.35;;;;;;;8.78;97.63;102221.03;1658323;84;21952;-91
2021/10/20 09:02:49;;;;;;;5.95;3.33;;;;;;;8.88;87.50;102215.02;1656065;84;21032;-91
2021/10/20 09:05:27;;;;;;;10.88;3.55;;;;;;;8.94;83.67;102207.39;1676444;84;21011;-91
2021/10/20 09:07:57;;;;;;;4.12;2.75;;;;;;;8.96;79.48;102202.55;1649567;86;21059;-90
2021/10/20 09:10:29;;;;;;;4.87;2.87;;;;;;;9.01;78.43;102204.95;1629136;86;21570;-89
2021/10/20 09:13:00;;;;;;;4.70;2.90;;;;;;;9.06;69.88;102202.98;1635612;84;20978;-91
2021/10/20 09:15:33;;;;;;;8.40;2.67;;;;;;;9.06;68.47;102207.31;1680140;84;21030;-92
2021/10/20 09:18:09;;;;;;;3.77;2.83;;;;;;;9.07;75.54;102210.31;1657242;84;20981;-91
2021/10/20 09:20:46;;;;;;;3.30;2.77;;;;;;;9.08;63.36;102208.10;1658717;84;21044;-92
2021/10/20 09:23:20;;;;;;;4.22;3.30;;;;;;;9.06;64.21;102205.58;1668327;85;21011;-90
2021/10/20 09:25:57;;;;;;;7.30;3.80;;;;;;;9.04;60.25;102200.06;1678652;84;21481;-89
2021/10/20 09:28:31;;;;;;;4.10;3.33;;;;;;;9.05;69.33;102199.16;1677696;84;20970;-89
2021/10/20 09:31:07;;;;;;;5.50;3.33;;;;;;;9.12;64.75;102202.70;1677195;83;21009;-89
2021/10/20 09:33:35;;;;;;;;;;;;;;;9.17;65.46;102196.02;1683205;84;20986;-90
2021/10/20 09:36:05;;;;;;;5.22;3.50;;;;;;;9.23;64.85;102186.63;1668488;84;20450;-90
2021/10/20 09:38:36;;;;;;;15.07;3.90;;;;;;;9.37;72.58;102187.33;1638957;86;21103;-90
2021/10/20 09:41:08;;;;;;;4.62;3.50;;;;;;;9.37;72.58;102187.33;1638458;84;21513;-90
2021/10/20 09:43:55;;;;;;;;;;;;;;;;;;;;;
2021/10/20 09:46:35;;;;;;;;;;;;;;;9.51;67.66;102178.91;1650419;85;21624;-89
2021/10/20 09:49:21;;;;;;;8.20;2.50;;;;;;;9.60;63.11;102178.93;1651334;85;20164;-87
2021/10/20 09:51:49;;;;;;;9.53;2.87;;;;;;;9.62;57.33;102171.91;1641738;85;21156;-89
2021/10/20 09:54:27;;;;;;;7.40;2.83;;;;;;;9.66;58.92;102175.20;1604892;88;21009;-90
2021/10/20 09:56:59;;;;;;;4.95;3.58;;;;;;;9.69;57.44;102167.27;1623107;85;21579;-88
2021/10/20 09:59:27;;;;;;;4.12;3.08;;;;;;;9.71;57.67;102169.33;1649681;84;20979;-89
2021/10/20 10:01:55;;;;;;;9.98;3.05;;;;;;;9.71;56.34;102168.88;1649973;85;21472;-89
2021/10/20 10:04:22;;;;;;;4.80;3.05;;;;;;;9.73;56.89;102167.06;1667325;84;21083;-89
2021/10/20 10:06:55;;;;;;;4.55;3.00;;;;;;;9.78;55.12;102171.58;1643250;85;21456;-90
2021/10/20 10:09:22;;;;;;;3.42;2.80;;;;;;;9.77;53.44;102164.69;1651353;85;21027;-90
2021/10/20 10:11:53;;;;;;;6.28;3.35;;;;;;;9.76;52.08;102164.30;1651198;85;21028;-90
2021/10/20 10:14:26;;;;;;;4.95;3.65;;;;;;;9.76;54.88;102157.80;1618255;87;21510;-88
2021/10/20 10:17:00;;;;;;;9.58;6.33;;;;;;;9.84;53.23;102157.89;1642190;85;21084;-89
2021/10/20 10:19:30;;;;;;;11.53;6.17;;;;;;;9.93;54.69;102154.86;1667418;84;21123;-89
2021/10/20 10:21:58;;;;;;;11.60;6.43;;;;;;;10.00;53.94;102152.81;1667564;84;21006;-90
2021/10/20 10:24:35;;;;;;;13.50;7.00;;;;;;;10.06;55.10;102148.60;1649644;85;20998;-89
2021/10/20 10:27:10;;;;;;;15.18;7.83;;;;;;;10.15;55.89;102150.77;1666530;84;21026;-89
2021/10/20 10:29:55;;;;;;;18.75;7.95;;;;;;;10.25;54.90;102144.64;1640184;86;21510;-89
2021/10/20 10:32:37;;;;;;;20.45;8.35;;;;;;;10.32;54.77;102146.02;1639635;84;21001;-89
2021/10/20 10:35:19;;;;;;;12.65;6.50;;;;;;;10.43;54.48;102144.20;1642303;84;21025;-89
2021/10/20 10:38:13;;;;;;;17.67;7.75;;;;;;;10.46;53.25;102140.59;1681268;82;21058;-89
2021/10/20 10:40:53;;;;;;;18.98;8.25;;;;;;;10.48;54.14;102142.67;1661672;83;21644;-89
2021/10/20 10:43:22;;;;;;;13.62;9.08;;;;;;;10.51;52.00;102134.72;1644495;85;21841;-89
2021/10/20 10:45:51;;;;;;;18.42;9.08;;;;;;;10.53;50.70;102132.89;1661273;85;20965;-89
2021/10/20 10:48:24;;;;;;;14.25;8.30;;;;;;;10.55;51.32;102131.88;1659376;85;20984;-89
2021/10/20 10:50:55;;;;;;;14.20;8.40;;;;;;;10.58;50.80;102119.16;1668046;83;20990;-89
2021/10/20 10:53:34;;;;;;;13.55;8.13;;;;;;;10.57;49.93;102114.42;1672960;83;21045;-88
2021/10/20 10:56:12;;;;;;;12.90;7.90;;;;;;;10.56;51.51;102120.98;1629230;86;21062;-89
2021/10/20 10:59:06;;;;;;;9.70;7.08;;;;;;;10.52;50.50;102115.57;1623235;86;21100;-88
2021/10/20 11:01:46;;;;;;;13.70;8.10;;;;;;;10.47;50.03;102117.55;1674592;83;20998;-86
2021/10/20 11:04:35;;;;;;;11.35;7.90;;;;;;;10.41;48.30;102110.44;1673530;83;21056;-88
2021/10/20 11:07:03;;;;;;;16.15;8.88;;;;;;;10.35;49.10;102107.26;1676515;84;21041;-88
2021/10/20 11:09:32;;;;;;;17.02;10.03;;;;;;;10.27;50.36;102105.06;1680229;84;21536;-88
2021/10/20 11:12:04;;;;;;;20.90;10.55;;;;;;;10.25;50.47;102102.98;1666405;83;21131;-87
2021/10/20 11:14:32;;;;;;;21.97;10.10;;;;;;;10.28;50.62;102112.39;1651259;84;21015;-87
2021/10/20 11:17:10;;;;;;;17.70;10.95;;;;;;;10.33;50.40;102107.34;1659815;84;20992;-88
2021/10/20 11:19:38;;;;;;;17.87;10.88;;;;;;;10.34;49.41;102108.17;1656668;85;21049;-87
2021/10/20 11:22:06;;;;;;;17.95;11.43;;;;;;;10.33;49.19;102104.74;1680206;84;21114;-88
2021/10/20 11:24:45;;;;;;;18.15;11.75;;;;;;;10.29;49.82;102101.06;1683704;83;21014;-86
2021/10/20 11:27:14;;;;;;;19.60;11.15;;;;;;;10.23;50.08;102097.86;1674045;84;21045;-88
2021/10/20 11:29:49;;;;;;;16.52;10.40;;;;;;;10.22;50.40;102094.87;1674815;84;20998;-87